Time;durP1;ratioP1;P1;durP2;ratioP2;P2;SDS_P1;SDS_P2;PMS_P1;PMS_P2;Temp;Humidity;BMP_temperature;BMP_pressure;BME280_temperature;BME280_humidity;BME280_pressure;Samples;Min_cycle;Max_cycle;Signal;HPM_P1;HPM_P2
2023/11/24 00:01:41;;;;;;;1.40;1.20;;;8.50;99.90;;;9.06;100.00;97888.19;5017149;28;20470;-79
2023/11/24 00:04:09;;;;;;;1.47;1.00;;;8.60;99.90;;;9.09;100.00;97883.44;5015492;28;20576;-79
2023/11/24 00:06:38;;;;;;;3.27;1.30;;;8.60;99.90;;;9.11;100.00;97872.81;5015247;28;20467;-79
2023/11/24 00:09:07;;;;;;;1.20;1.00;;;8.60;99.90;;;9.13;100.00;97860.41;5016313;28;20463;-79
2023/11/24 00:11:35;;;;;;;2.20;1.00;;;8.70;99.90;;;9.18;100.00;97854.63;5016424;28;20806;-79
2023/11/24 00:14:06;;;;;;;1.30;1.00;;;8.70;99.90;;;9.22;100.00;97855.91;5016546;28;20477;-78
2023/11/24 00:16:38;;;;;;;2.93;1.23;;;8.70;99.90;;;9.23;100.00;97847.09;5015898;28;20466;-79
2023/11/24 00:19:07;;;;;;;1.17;1.03;;;8.80;99.90;;;9.27;100.00;97825.66;5018034;28;20962;-79
2023/11/24 00:21:36;;;;;;;1.50;1.10;;;8.80;99.90;;;9.31;100.00;97826.91;5014534;28;20543;-79
2023/11/24 00:24:05;;;;;;;0.90;0.77;;;8.90;99.90;;;9.34;100.00;97821.31;5015460;28;20473;-80
2023/11/24 00:26:33;;;;;;;1.33;1.00;;;8.80;99.90;;;9.36;100.00;97828.97;5017039;28;20463;-79
2023/11/24 00:29:02;;;;;;;5.03;1.07;;;8.90;99.90;;;9.36;100.00;97842.81;5015089;28;20474;-79
2023/11/24 00:31:32;;;;;;;1.30;1.10;;;9.00;99.90;;;9.39;100.00;97842.44;5013302;28;20475;-79
2023/11/24 00:34:01;;;;;;;1.03;0.93;;;9.00;99.90;;;9.41;100.00;97845.66;5014057;28;21264;-80
2023/11/24 00:36:30;;;;;;;0.90;0.80;;;9.00;99.90;;;9.43;100.00;97842.88;5013159;28;20557;-79
2023/11/24 00:38:59;;;;;;;1.00;0.90;;;8.90;99.90;;;9.44;100.00;97829.66;5015186;28;20568;-79
2023/11/24 00:41:28;;;;;;;1.00;0.90;;;9.00;99.90;;;9.49;100.00;97852.59;5013769;28;21031;-79
2023/11/24 00:43:57;;;;;;;0.93;0.87;;;9.10;99.90;;;9.54;100.00;97856.25;5014370;28;20497;-79
2023/11/24 00:46:25;;;;;;;4.20;1.27;;;9.10;99.90;;;9.55;100.00;97844.81;5014610;28;20505;-79
2023/11/24 00:48:56;;;;;;;1.13;1.03;;;9.10;99.90;;;9.58;100.00;97836.63;5017876;28;20462;-79
2023/11/24 00:51:26;;;;;;;1.07;0.97;;;9.10;99.90;;;9.61;100.00;97836.25;5016795;28;20859;-79
2023/11/24 00:53:54;;;;;;;3.70;0.93;;;9.20;99.90;;;9.62;100.00;97826.59;5016744;28;20545;-79
2023/11/24 00:56:23;;;;;;;1.53;1.07;;;9.20;99.90;;;9.63;100.00;97814.38;5015697;28;20469;-80
2023/11/24 00:58:51;;;;;;;1.00;0.90;;;9.20;99.90;;;9.64;100.00;97823.81;5017628;28;20515;-79
2023/11/24 01:01:20;;;;;;;1.40;1.30;;;9.20;99.90;;;9.66;100.00;97804.38;5017371;28;20846;-79
2023/11/24 01:03:48;;;;;;;1.70;1.60;;;9.20;99.90;;;9.69;100.00;97808.41;5018441;28;20569;-79
2023/11/24 01:06:19;;;;;;;1.87;1.20;;;9.20;99.90;;;9.70;100.00;97796.97;5018499;28;20573;-79
2023/11/24 01:08:47;;;;;;;2.23;1.10;;;9.30;99.90;;;9.73;100.00;97766.06;5016469;28;20516;-79
2023/11/24 01:11:16;;;;;;;1.90;1.20;;;9.30;99.90;;;9.70;100.00;97766.44;5018556;28;20461;-79
2023/11/24 01:13:45;;;;;;;6.30;1.83;;;9.30;99.90;;;9.70;100.00;97768.25;5017407;28;20489;-79
2023/11/24 01:16:14;;;;;;;1.17;1.07;;;9.20;99.90;;;9.70;100.00;97774.28;5018796;28;20950;-79
2023/11/24 01:18:43;;;;;;;1.10;1.00;;;9.30;99.90;;;9.72;100.00;97776.72;5018677;28;20954;-79
2023/11/24 01:21:11;;;;;;;2.27;1.30;;;9.30;99.90;;;9.72;100.00;97774.09;5017368;28;20466;-79
2023/11/24 01:23:41;;;;;;;2.13;1.17;;;9.30;99.90;;;9.73;100.00;97768.69;5015835;28;20475;-79
2023/11/24 01:26:11;;;;;;;1.33;1.23;;;9.30;99.90;;;9.73;100.00;97773.09;5018199;28;20498;-79
2023/11/24 01:28:40;;;;;;;1.37;0.83;;;9.30;99.90;;;9.75;100.00;97789.38;5018169;28;20475;-79
2023/11/24 01:31:09;;;;;;;1.67;0.90;;;9.30;99.90;;;9.74;100.00;97793.00;5017781;28;20875;-79
2023/11/24 01:33:38;;;;;;;1.33;1.00;;;9.30;99.90;;;9.73;100.00;97776.50;5017219;28;20479;-79
2023/11/24 01:36:07;;;;;;;1.23;1.13;;;9.30;99.90;;;9.74;100.00;97777.31;5018935;28;20471;-79
2023/11/24 01:38:36;;;;;;;3.13;1.00;;;9.20;99.90;;;9.75;100.00;97771.94;5019725;28;20482;-79
2023/11/24 01:41:06;;;;;;;3.40;1.07;;;9.30;99.90;;;9.76;100.00;97754.44;5017251;28;20470;-79
2023/11/24 01:43:35;;;;;;;3.10;1.00;;;9.30;99.90;;;9.75;100.00;97742.41;5020188;28;20490;-79
2023/11/24 01:46:05;;;;;;;1.30;1.10;;;9.30;99.90;;;9.72;100.00;97742.78;5018132;28;20508;-79
2023/11/24 01:48:34;;;;;;;1.37;1.27;;;9.30;99.90;;;9.72;100.00;97742.78;5017550;28;20512;-79
2023/11/24 01:51:02;;;;;;;1.60;1.17;;;9.30;99.90;;;9.70;100.00;97756.00;5019184;28;20545;-79
2023/11/24 01:53:36;;;;;;;2.90;1.70;;;9.20;99.90;;;9.72;100.00;97750.59;5017605;28;20477;-79
2023/11/24 01:56:06;;;;;;;1.43;1.30;;;9.20;99.90;;;9.72;100.00;97753.22;5018342;28;20463;-79
2023/11/24 01:58:35;;;;;;;1.73;1.50;;;9.30;99.90;;;9.72;100.00;97750.59;5019822;28;20559;-79
2023/11/24 02:01:04;;;;;;;1.23;1.03;;;9.30;99.90;;;9.74;100.00;97748.59;5017313;28;20459;-80
2023/11/24 02:03:32;;;;;;;3.00;1.30;;;9.20;99.90;;;9.75;100.00;97745.81;5017978;28;20510;-79
2023/11/24 02:06:02;;;;;;;6.80;1.30;;;9.30;99.90;;;9.76;100.00;97744.00;5018688;28;20501;-79
2023/11/24 02:08:30;;;;;;;1.77;1.33;;;9.30;99.90;;;9.78;100.00;97742.81;5016914;28;20466;-79
2023/11/24 02:10:59;;;;;;;1.20;1.10;;;9.30;99.90;;;9.77;100.00;97740.38;5016223;28;20479;-79
2023/11/24 02:13:29;;;;;;;1.30;1.10;;;9.40;99.90;;;9.81;100.00;97741.63;5015673;28;20473;-79
2023/11/24 02:15:58;;;;;;;1.30;1.00;;;9.40;99.90;;;9.84;100.00;97733.41;5017051;28;20454;-80
2023/11/24 02:18:26;;;;;;;1.80;1.13;;;9.40;99.90;;;9.86;100.00;97723.56;5015531;28;20470;-80
2023/11/24 02:20:55;;;;;;;4.30;1.30;;;9.40;99.90;;;9.86;100.00;97716.53;5019770;28;20463;-79
2023/11/24 02:23:25;;;;;;;1.53;1.00;;;9.40;99.90;;;9.89;100.00;97720.59;5015845;28;20466;-79
2023/11/24 02:25:54;;;;;;;1.40;1.00;;;9.50;99.90;;;9.89;100.00;97720.59;5018872;28;20863;-79
2023/11/24 02:28:22;;;;;;;1.93;1.03;;;9.60;99.90;;;9.86;100.00;97710.50;5017130;28;20458;-79
2023/11/24 02:30:52;;;;;;;1.10;0.87;;;9.40;99.90;;;9.90;100.00;97703.91;5017226;28;20494;-79
2023/11/24 02:33:22;;;;;;;1.20;0.80;;;9.40;99.90;;;9.93;100.00;97706.97;5014860;28;20529;-79
2023/11/24 02:35:51;;;;;;;1.30;0.90;;;9.40;99.90;;;9.91;100.00;97695.91;5017326;28;20490;-79
2023/11/24 02:38:19;;;;;;;1.33;1.13;;;9.40;99.90;;;9.89;100.00;97708.34;5017390;28;20455;-79
2023/11/24 02:40:50;;;;;;;1.30;1.20;;;9.40;99.90;;;9.90;100.00;97693.47;5016543;28;20459;-79
2023/11/24 02:43:19;;;;;;;1.50;1.20;;;9.40;99.90;;;9.91;100.00;97695.91;5016828;28;20830;-79
2023/11/24 02:45:47;;;;;;;1.20;1.10;;;9.40;99.90;;;9.93;100.00;97698.31;5017856;28;20600;-79
2023/11/24 02:48:16;;;;;;;1.50;1.33;;;9.50;99.90;;;9.95;100.00;97698.94;5017257;28;20883;-79
2023/11/24 02:50:44;;;;;;;1.53;1.20;;;9.50;99.90;;;9.96;100.00;97703.19;5017383;28;20564;-79
2023/11/24 02:53:14;;;;;;;1.10;0.90;;;9.60;99.90;;;9.96;100.00;97677.06;5018866;28;20508;-79
2023/11/24 02:55:43;;;;;;;1.23;1.13;;;9.40;99.90;;;10.00;100.00;97691.31;5016836;28;20464;-79
2023/11/24 02:58:13;;;;;;;1.60;1.50;;;9.60;99.90;;;10.01;100.00;97698.16;5016282;28;20832;-79
2023/11/24 03:00:42;;;;;;;2.13;1.93;;;9.60;99.90;;;10.01;100.00;97698.16;5015335;28;20477;-79
2023/11/24 03:03:10;;;;;;;2.60;1.70;;;9.60;99.90;;;10.01;100.00;97721.69;5017357;28;20490;-79
2023/11/24 03:05:38;;;;;;;1.93;1.53;;;9.60;99.90;;;10.02;100.00;97733.75;5014876;28;20462;-79
2023/11/24 03:08:08;;;;;;;2.33;1.47;;;9.60;99.90;;;9.99;100.00;97739.34;5016361;28;20459;-78
2023/11/24 03:10:36;;;;;;;1.67;1.20;;;9.50;99.90;;;9.93;100.00;97732.25;5014886;28;20517;-79
2023/11/24 03:13:05;;;;;;;1.43;1.10;;;9.60;99.90;;;9.93;100.00;97740.09;5015210;28;21148;-79
2023/11/24 03:15:35;;;;;;;3.20;1.50;;;9.50;99.90;;;9.90;100.00;97732.66;5014441;28;20470;-79
2023/11/24 03:18:04;;;;;;;2.27;1.10;;;9.50;99.90;;;9.91;100.00;97742.09;5016073;28;20464;-79
2023/11/24 03:20:32;;;;;;;1.53;1.20;;;9.50;99.90;;;9.87;100.00;97738.25;5014784;28;20553;-79
2023/11/24 03:23:01;;;;;;;3.83;1.10;;;9.40;99.90;;;9.80;100.00;97740.00;5016106;28;20885;-79
2023/11/24 03:25:30;;;;;;;4.27;1.37;;;9.40;99.90;;;9.72;100.00;97737.56;5014640;28;20474;-79
2023/11/24 03:27:58;;;;;;;4.47;1.60;;;9.30;99.90;;;9.59;100.00;97741.66;5015549;28;21035;-78
2023/11/24 03:30:28;;;;;;;3.53;1.20;;;9.30;99.90;;;9.50;100.00;97740.19;5017941;28;20474;-79
2023/11/24 03:32:58;;;;;;;6.03;1.80;;;9.20;99.90;;;9.49;100.00;97743.78;5016363;28;20463;-78
2023/11/24 03:35:27;;;;;;;5.10;1.57;;;9.10;99.90;;;9.46;100.00;97741.53;5016951;28;20470;-79
2023/11/24 03:37:55;;;;;;;6.67;1.53;;;9.10;99.90;;;9.41;100.00;97746.50;5016279;28;20467;-79
2023/11/24 03:40:24;;;;;;;5.10;1.73;;;9.10;99.90;;;9.41;100.00;97735.25;5017076;28;20999;-80
2023/11/24 03:42:52;;;;;;;9.73;1.60;;;8.90;99.90;;;9.39;100.00;97745.09;5012317;28;20467;-79
2023/11/24 03:45:21;;;;;;;3.00;1.40;;;8.90;99.90;;;9.35;100.00;97744.66;5015990;28;20484;-79
2023/11/24 03:47:49;;;;;;;10.03;2.23;;;8.90;99.90;;;9.32;100.00;97742.41;5015370;28;20493;-79
2023/11/24 03:50:19;;;;;;;6.50;1.60;;;8.80;99.90;;;9.30;100.00;97726.13;5013661;28;20488;-79
2023/11/24 03:52:48;;;;;;;6.77;1.60;;;8.80;99.90;;;9.33;100.00;97717.94;5014313;28;20884;-79
2023/11/24 03:55:16;;;;;;;3.70;1.37;;;8.70;99.90;;;9.29;100.00;97723.72;5012094;28;20527;-79
2023/11/24 03:57:46;;;;;;;4.90;2.60;;;8.80;99.90;;;9.26;100.00;97730.13;5010649;28;20474;-77
2023/11/24 04:00:15;;;;;;;4.33;1.77;;;8.70;99.90;;;9.23;100.00;97722.69;5010444;28;20478;-78
2023/11/24 04:02:44;;;;;;;6.10;1.60;;;8.80;99.90;;;9.21;100.00;97710.78;5014715;28;20501;-79
2023/11/24 04:05:13;;;;;;;5.43;1.67;;;8.60;99.90;;;9.12;100.00;97701.47;5011449;28;20557;-80
2023/11/24 04:07:43;;;;;;;9.87;2.20;;;8.60;99.90;;;9.12;100.00;97707.50;5015467;28;20928;-79
2023/11/24 04:10:11;;;;;;;56.67;33.53;;;8.60;99.90;;;9.09;100.00;97702.69;5013746;28;20467;-77
2023/11/24 04:12:40;;;;;;;7.60;2.50;;;8.60;99.90;;;9.08;100.00;97696.66;5014965;28;20467;-79
2023/11/24 04:15:10;;;;;;;6.50;1.60;;;8.50;99.90;;;9.05;100.00;97704.03;5013166;28;20956;-78
2023/11/24 04:17:39;;;;;;;14.63;2.13;;;8.60;99.90;;;9.01;100.00;97710.59;5013211;28;20498;-78
2023/11/24 04:20:09;;;;;;;38.50;14.40;;;8.50;99.90;;;8.98;100.00;97706.56;5013433;28;20555;-78
2023/11/24 04:22:39;;;;;;;6.20;2.37;;;8.50;99.90;;;8.96;100.00;97695.50;5010714;28;20946;-78
2023/11/24 04:25:10;;;;;;;5.57;2.00;;;8.40;99.90;;;8.90;100.00;97688.44;5014250;28;20467;-77
2023/11/24 04:27:39;;;;;;;15.90;1.80;;;8.30;99.90;;;8.90;100.00;97685.81;5014223;28;20527;-77
2023/11/24 04:30:08;;;;;;;3.23;1.77;;;8.20;99.90;;;8.81;100.00;97678.31;5013810;28;20532;-77
2023/11/24 04:32:37;;;;;;;10.67;1.60;;;8.30;99.90;;;8.81;100.00;97681.72;5016903;28;20459;-78
2023/11/24 04:35:08;;;;;;;11.30;1.70;;;8.20;99.90;;;8.77;100.00;97697.91;5017598;28;20466;-77
2023/11/24 04:37:36;;;;;;;7.90;2.00;;;8.20;99.90;;;8.73;100.00;97692.25;5019648;28;20498;-77
2023/11/24 04:40:06;;;;;;;8.40;1.70;;;8.10;99.90;;;8.66;100.00;97695.78;5015744;28;20519;-77
2023/11/24 04:42:38;;;;;;;4.90;1.50;;;8.00;99.90;;;8.63;100.00;97690.94;5017264;28;20463;-77
2023/11/24 04:45:11;;;;;;;7.83;2.33;;;7.90;99.90;;;8.55;100.00;97694.44;5017700;28;20454;-77
2023/11/24 04:47:39;;;;;;;4.47;1.63;;;7.90;99.90;;;8.47;100.00;97684.94;5018379;28;20513;-78
2023/11/24 04:50:09;;;;;;;2.87;1.33;;;7.90;99.90;;;8.43;100.00;97690.72;5017535;28;20557;-78
2023/11/24 04:52:38;;;;;;;15.27;1.90;;;7.80;99.90;;;8.36;100.00;97688.03;5018672;28;20458;-77
2023/11/24 04:55:07;;;;;;;5.23;1.50;;;7.70;99.90;;;8.33;100.00;97687.59;5018858;28;20463;-78
2023/11/24 04:57:37;;;;;;;28.83;8.00;;;7.70;99.90;;;8.28;100.00;97689.88;5015307;28;20467;-78
2023/11/24 05:00:08;;;;;;;6.80;1.87;;;7.60;99.90;;;8.24;100.00;97686.84;5015184;28;20471;-77
2023/11/24 05:02:37;;;;;;;2.80;1.70;;;7.60;99.90;;;8.26;100.00;97689.28;5017514;28;20483;-78
2023/11/24 05:05:07;;;;;;;6.83;1.40;;;7.60;99.90;;;8.18;100.00;97697.97;5016703;28;20458;-77
2023/11/24 05:07:36;;;;;;;5.83;2.50;;;7.60;99.90;;;8.19;100.00;97704.00;5017774;28;20509;-78
2023/11/24 05:10:07;;;;;;;7.87;1.80;;;7.60;99.90;;;8.14;100.00;97699.31;5015720;28;20467;-77
2023/11/24 05:12:37;;;;;;;4.57;1.63;;;7.50;99.90;;;8.12;100.00;97693.50;5015810;28;20480;-76
2023/11/24 05:15:08;;;;;;;25.63;8.60;;;7.40;99.90;;;8.05;100.00;97692.59;5014703;28;20462;-78
2023/11/24 05:17:38;;;;;;;9.63;2.40;;;7.50;99.90;;;8.03;100.00;97695.38;5016889;28;20465;-78
2023/11/24 05:20:09;;;;;;;6.40;2.13;;;7.40;99.90;;;8.03;100.00;97702.38;5019434;28;21031;-77
2023/11/24 05:22:40;;;;;;;12.07;1.93;;;7.30;99.90;;;7.98;100.00;97705.50;5018080;28;20473;-77
2023/11/24 05:25:09;;;;;;;7.87;2.03;;;7.20;99.90;;;7.90;100.00;97702.19;5014970;28;20469;-78
2023/11/24 05:27:39;;;;;;;12.63;1.73;;;7.40;99.90;;;7.91;100.00;97693.41;5016638;28;20498;-78
2023/11/24 05:30:11;;;;;;;10.13;2.10;;;7.30;99.90;;;7.90;100.00;97687.38;5015182;28;20544;-78
2023/11/24 05:32:39;;;;;;;7.07;2.10;;;7.30;99.90;;;7.88;100.00;97689.34;5014721;28;20501;-78
2023/11/24 05:35:09;;;;;;;5.67;2.00;;;7.30;99.90;;;7.87;100.00;97697.34;5018085;28;20497;-77
2023/11/24 05:37:37;;;;;;;4.30;1.70;;;7.20;99.90;;;7.84;100.00;97702.91;5018940;28;20462;-77
2023/11/24 05:40:08;;;;;;;4.87;1.80;;;7.10;99.90;;;7.77;100.00;97681.19;5021092;28;20488;-77
2023/11/24 05:42:39;;;;;;;9.97;2.03;;;7.10;99.90;;;7.72;100.00;97676.50;5018051;28;20506;-77
2023/11/24 05:45:09;;;;;;;5.87;2.00;;;7.20;99.90;;;7.75;100.00;97683.94;5019775;28;20478;-77
2023/11/24 05:47:41;;;;;;;8.37;2.20;;;7.20;99.90;;;7.72;100.00;97679.09;5019526;28;20498;-77
2023/11/24 05:50:17;;;;;;;6.07;2.10;;;7.20;99.90;;;7.69;100.00;97674.25;5020811;28;20498;-77
2023/11/24 05:52:46;;;;;;;9.40;2.10;;;7.10;99.90;;;7.67;100.00;97678.03;5018954;28;20554;-77
2023/11/24 05:55:15;;;;;;;11.53;2.13;;;7.20;99.90;;;7.67;100.00;97681.41;5021608;28;20494;-77
2023/11/24 05:57:45;;;;;;;10.73;1.77;;;7.10;99.90;;;7.66;100.00;97686.81;5019716;28;20479;-77
2023/11/24 06:00:18;;;;;;;7.33;1.73;;;7.10;99.90;;;7.69;100.00;97683.84;5021096;28;20467;-77
2023/11/24 06:02:47;;;;;;;10.83;1.90;;;7.20;99.90;;;7.72;100.00;97688.69;5019372;28;20876;-77
2023/11/24 06:05:16;;;;;;;7.63;2.20;;;7.10;99.90;;;7.69;100.00;97692.47;5017563;28;20542;-78
2023/11/24 06:07:45;;;;;;;6.77;2.10;;;7.00;99.90;;;7.70;100.00;97685.47;5018286;28;20521;-77
2023/11/24 06:10:17;;;;;;;6.63;1.53;;;7.00;99.90;;;7.68;100.00;97692.63;5016984;28;20470;-77
2023/11/24 06:12:48;;;;;;;6.57;1.70;;;7.10;99.90;;;7.63;100.00;97689.78;5018309;28;20516;-77
2023/11/24 06:15:16;;;;;;;5.30;1.60;;;7.00;99.90;;;7.60;100.00;97685.75;5016131;28;20544;-78
2023/11/24 06:17:48;;;;;;;15.83;2.20;;;7.00;99.90;;;7.57;100.00;97684.28;5017211;28;20482;-77
2023/11/24 06:20:16;;;;;;;5.53;1.37;;;7.00;99.90;;;7.56;100.00;97685.28;5019434;28;20470;-77
2023/11/24 06:22:45;;;;;;;5.17;1.43;;;6.80;99.90;;;7.54;100.00;97682.03;5017658;28;20954;-77
2023/11/24 06:25:14;;;;;;;9.70;3.20;;;7.00;99.90;;;7.50;100.00;97685.97;5016433;28;21088;-77
2023/11/24 06:27:44;;;;;;;7.70;2.60;;;6.90;99.90;;;7.52;100.00;97686.63;5017519;28;20502;-77
2023/11/24 06:30:15;;;;;;;9.57;2.07;;;6.90;99.90;;;7.47;100.00;97686.31;5018783;28;20490;-77
2023/11/24 06:32:43;;;;;;;3.63;1.43;;;7.00;99.90;;;7.47;100.00;97681.13;5019616;28;20458;-77
2023/11/24 06:35:15;;;;;;;5.10;1.47;;;6.90;99.90;;;7.49;100.00;97681.78;5017016;28;20474;-77
2023/11/24 06:37:44;;;;;;;4.53;1.73;;;6.90;99.90;;;7.49;100.00;97680.97;5018465;28;20506;-77
2023/11/24 06:40:13;;;;;;;17.23;2.00;;;6.90;99.90;;;7.51;100.00;97681.59;5019056;28;20935;-77
2023/11/24 06:42:43;;;;;;;15.67;1.97;;;6.90;99.90;;;7.52;100.00;97673.59;5019171;28;20470;-77
2023/11/24 06:45:13;;;;;;;6.87;1.90;;;6.90;99.90;;;7.53;100.00;97674.44;5017391;28;20481;-77
2023/11/24 06:47:43;;;;;;;9.27;2.03;;;6.90;99.90;;;7.52;100.00;97673.59;5018481;28;20492;-77
2023/11/24 06:50:13;;;;;;;9.73;2.07;;;7.00;99.90;;;7.52;100.00;97676.22;5020227;28;20466;-77
2023/11/24 06:52:43;;;;;;;14.33;2.60;;;7.10;99.90;;;7.57;100.00;97671.28;5019232;28;20471;-77
2023/11/24 06:55:12;;;;;;;7.37;2.50;;;7.00;99.90;;;7.56;100.00;97666.25;5018461;28;20489;-77
2023/11/24 06:57:41;;;;;;;7.23;2.60;;;6.90;99.90;;;7.56;100.00;97663.66;5019108;28;21007;-77
2023/11/24 07:00:17;;;;;;;10.50;3.47;;;7.10;99.90;;;7.56;100.00;97668.88;5018118;28;20470;-77
2023/11/24 07:02:48;;;;;;;6.40;1.43;;;7.00;99.90;;;7.59;100.00;97671.09;5018053;28;20559;-77
2023/11/24 07:05:18;;;;;;;14.50;1.80;;;7.00;99.90;;;7.58;100.00;97665.09;5018282;28;20938;-77
2023/11/24 07:07:46;;;;;;;8.37;1.67;;;7.00;99.90;;;7.59;100.00;97665.91;5019749;28;20490;-76
2023/11/24 07:10:15;;;;;;;7.80;1.27;;;7.00;99.90;;;7.52;100.00;97657.19;5017415;28;20466;-77
2023/11/24 07:12:44;;;;;;;5.47;1.90;;;7.10;99.90;;;7.51;100.00;97669.38;5017988;28;21432;-77
2023/11/24 07:15:13;;;;;;;12.67;2.33;;;7.00;99.90;;;7.50;100.00;97669.53;5016200;28;20470;-77
2023/11/24 07:17:43;;;;;;;3.73;1.57;;;7.00;99.90;;;7.49;100.00;97671.38;5021330;28;20860;-77
2023/11/24 07:20:14;;;;;;;9.17;1.90;;;6.90;99.90;;;7.51;100.00;97665.97;5017246;28;20576;-77
2023/11/24 07:22:43;;;;;;;13.63;2.37;;;6.80;99.90;;;7.50;100.00;97665.16;5018641;28;20470;-77
2023/11/24 07:25:14;;;;;;;11.33;1.70;;;6.80;99.90;;;7.46;100.00;97661.28;5016796;28;20554;-77
2023/11/24 07:27:43;;;;;;;9.40;1.60;;;7.00;99.90;;;7.47;100.00;97655.09;5018739;28;20521;-77
2023/11/24 07:30:13;;;;;;;6.10;2.00;;;7.00;99.90;;;7.49;100.00;97653.16;5017157;28;20499;-77
2023/11/24 07:32:42;;;;;;;5.17;1.63;;;7.10;99.90;;;7.51;100.00;97650.38;5018042;28;21012;-77
2023/11/24 07:35:13;;;;;;;10.47;1.70;;;7.00;99.90;;;7.50;100.00;97648.72;5017544;28;20546;-77
2023/11/24 07:37:43;;;;;;;3.93;1.33;;;6.90;99.90;;;7.48;100.00;97656.72;5017900;28;20639;-76
2023/11/24 07:40:14;;;;;;;6.00;1.63;;;7.00;99.90;;;7.49;100.00;97663.56;5020293;28;20462;-77
2023/11/24 07:42:44;;;;;;;5.20;1.40;;;6.90;99.90;;;7.48;100.00;97667.13;5017245;28;21887;-77
2023/11/24 07:45:15;;;;;;;4.53;2.00;;;6.90;99.90;;;7.50;100.00;97666.94;5016768;28;20466;-77
2023/11/24 07:47:44;;;;;;;4.90;1.43;;;6.90;99.90;;;7.48;100.00;97668.94;5020099;28;20551;-77
2023/11/24 07:50:15;;;;;;;3.70;1.60;;;7.00;99.90;;;7.44;100.00;97660.66;5016544;28;20526;-77
2023/11/24 07:52:46;;;;;;;3.93;1.40;;;6.90;99.90;;;7.45;100.00;97667.50;5017370;28;20471;-77
2023/11/24 07:55:15;;;;;;;4.50;1.70;;;6.80;99.90;;;7.47;100.00;97675.91;5015447;28;20492;-77
2023/11/24 07:57:44;;;;;;;3.83;1.60;;;6.80;99.90;;;7.45;100.00;97677.09;5016764;28;20477;-77
2023/11/24 08:00:13;;;;;;;1.57;1.00;;;6.90;99.90;;;7.31;100.00;97681.28;5017103;28;20478;-77
2023/11/24 08:02:43;;;;;;;4.73;1.00;;;7.00;99.90;;;7.26;100.00;97656.75;5015655;28;20489;-77
2023/11/24 08:05:11;;;;;;;4.10;1.00;;;6.70;99.90;;;7.26;100.00;97665.38;5013704;28;20498;-77
2023/11/24 08:07:44;;;;;;;2.63;1.10;;;6.60;99.90;;;7.29;100.00;97662.41;5015016;28;20463;-77
2023/11/24 08:10:14;;;;;;;2.23;1.20;;;6.70;99.90;;;7.32;100.00;97656.09;5015950;28;21125;-77
2023/11/24 08:12:43;;;;;;;1.33;1.00;;;6.60;99.90;;;7.28;100.00;97650.41;5015754;28;20573;-77
2023/11/24 08:15:12;;;;;;;1.73;1.13;;;6.70;99.90;;;7.27;100.00;97650.59;5017461;28;20968;-77
2023/11/24 08:17:43;;;;;;;2.10;1.07;;;6.70;99.90;;;7.28;100.00;97660.00;5018193;28;20469;-77
2023/11/24 08:20:13;;;;;;;5.13;1.20;;;6.70;99.90;;;7.27;100.00;97645.38;5016646;28;20541;-77
2023/11/24 08:22:43;;;;;;;2.80;1.30;;;6.60;99.90;;;7.23;100.00;97637.13;5019707;28;21082;-78
2023/11/24 08:25:12;;;;;;;1.83;1.00;;;6.60;99.90;;;7.20;100.00;97640.09;5019089;28;20795;-77
2023/11/24 08:27:41;;;;;;;5.20;1.10;;;6.60;99.90;;;7.22;100.00;97632.91;5018497;28;20561;-77
2023/11/24 08:30:11;;;;;;;1.77;1.20;;;6.50;99.90;;;7.23;100.00;97626.72;5018149;28;20621;-77
2023/11/24 08:32:42;;;;;;;2.30;1.07;;;6.60;99.90;;;7.25;100.00;97619.56;5019024;28;20466;-77
2023/11/24 08:35:15;;;;;;;2.90;1.13;;;6.60;99.90;;;7.26;100.00;97615.97;5015204;28;20459;-78
2023/11/24 08:37:45;;;;;;;2.27;1.10;;;6.60;99.90;;;7.27;100.00;97614.19;5016279;28;20474;-77
2023/11/24 08:40:16;;;;;;;2.77;1.40;;;6.60;99.90;;;7.31;100.00;97607.66;5017414;28;20474;-77
2023/11/24 08:42:47;;;;;;;6.33;1.47;;;6.70;99.90;;;7.26;100.00;97604.75;5016579;28;20957;-77
2023/11/24 08:45:16;;;;;;;3.03;1.30;;;6.60;99.90;;;7.26;100.00;97596.94;5016258;28;20884;-77
2023/11/24 08:47:47;;;;;;;11.30;2.00;;;6.70;99.90;;;7.27;100.00;97583.78;5017221;28;20485;-80
2023/11/24 08:50:18;;;;;;;5.37;1.73;;;6.70;99.90;;;7.28;100.00;97592.41;5016166;28;20503;-78
2023/11/24 08:52:49;;;;;;;12.83;2.77;;;6.60;99.90;;;7.29;100.00;97584.41;5015910;28;20469;-78
2023/11/24 08:55:19;;;;;;;6.20;1.50;;;6.70;99.90;;;7.32;100.00;97578.88;5014157;28;20470;-78
2023/11/24 08:57:49;;;;;;;6.13;1.23;;;6.70;99.90;;;7.34;100.00;97576.09;5015521;28;21016;-78
2023/11/24 09:00:19;;;;;;;8.87;1.70;;;6.70;99.90;;;7.36;100.00;97569.72;5015890;28;20463;-78
2023/11/24 09:02:48;;;;;;;2.07;1.20;;;6.80;99.90;;;7.42;100.00;97568.19;5015334;28;20489;-77
2023/11/24 09:05:18;;;;;;;3.43;1.10;;;6.80;99.90;;;7.45;100.00;97571.25;5015769;28;20475;-78
2023/11/24 09:07:48;;;;;;;6.30;1.30;;;6.80;99.90;;;7.45;100.00;97566.06;5016539;28;21101;-77
2023/11/24 09:10:16;;;;;;;6.47;1.53;;;6.70;99.90;;;7.48;100.00;97562.28;5016953;28;21022;-78
2023/11/24 09:12:45;;;;;;;7.30;1.30;;;6.80;99.90;;;7.48;100.00;97563.09;5015960;28;20469;-78
2023/11/24 09:15:15;;;;;;;7.17;1.60;;;6.80;99.90;;;7.50;100.00;97550.69;5017303;28;20462;-78
2023/11/24 09:17:44;;;;;;;4.70;1.30;;;6.80;99.90;;;7.50;100.00;97561.09;5016934;28;20470;-77
2023/11/24 09:20:16;;;;;;;6.47;1.50;;;7.00;99.90;;;7.51;100.00;97549.72;5020713;28;20458;-77
2023/11/24 09:22:45;;;;;;;5.20;1.30;;;7.00;99.90;;;7.50;100.00;97561.09;5019789;28;20466;-77
2023/11/24 09:25:15;;;;;;;5.67;1.77;;;7.10;99.90;;;7.49;100.00;97553.50;5019060;28;20515;-77
2023/11/24 09:27:45;;;;;;;8.17;1.20;;;7.00;99.90;;;7.53;100.00;97552.16;5022461;28;20984;-77
2023/11/24 09:30:14;;;;;;;7.43;2.10;;;7.10;99.90;;;7.47;100.00;97566.66;5020808;28;20505;-77
2023/11/24 09:32:44;;;;;;;8.73;1.37;;;7.10;99.90;;;7.44;100.00;97567.03;5021683;28;20519;-77
2023/11/24 09:35:13;;;;;;;1.70;1.13;;;7.00;99.90;;;7.45;100.00;97563.44;5020416;28;20475;-77
2023/11/24 09:37:42;;;;;;;3.10;1.13;;;7.00;99.90;;;7.47;100.00;97565.84;5020340;28;20501;-77
2023/11/24 09:40:16;;;;;;;2.20;1.30;;;7.00;99.90;;;7.50;100.00;97568.91;5019999;28;20998;-77
2023/11/24 09:42:47;;;;;;;4.43;1.80;;;7.10;99.90;;;7.47;100.00;97560.66;5019980;28;20511;-77
2023/11/24 09:45:19;;;;;;;4.07;1.40;;;6.90;99.90;;;7.40;100.00;97557.97;5019918;28;20573;-77
2023/11/24 09:47:50;;;;;;;3.77;1.77;;;6.90;99.90;;;7.35;100.00;97562.91;5017575;28;20462;-77
2023/11/24 09:50:24;;;;;;;10.03;1.37;;;7.00;99.90;;;7.40;100.00;97552.75;5018376;28;20524;-77
2023/11/24 09:52:56;;;;;;;5.80;1.10;;;7.00;99.90;;;7.45;100.00;97550.44;5018168;28;21428;-78
2023/11/24 09:55:28;;;;;;;2.83;1.30;;;7.10;99.90;;;7.39;100.00;97552.97;5018790;28;21097;-78
2023/11/24 09:57:59;;;;;;;16.60;1.40;;;6.90;99.90;;;7.43;100.00;97551.59;5019732;28;20453;-77
2023/11/24 10:00:28;;;;;;;3.03;1.00;;;7.00;99.90;;;7.39;100.00;97532.94;5017229;28;20466;-77
2023/11/24 10:03:00;;;;;;;2.83;1.23;;;7.00;99.90;;;7.41;100.00;97536.19;5019577;28;20617;-77
2023/11/24 10:05:30;;;;;;;4.07;1.10;;;7.00;99.90;;;7.44;100.00;97530.63;5020595;28;20950;-77
2023/11/24 10:08:00;;;;;;;8.73;1.60;;;7.10;99.90;;;7.38;100.00;97536.53;5020037;28;20554;-78
2023/11/24 10:10:30;;;;;;;2.57;1.30;;;6.90;99.90;;;7.43;100.00;97528.19;5019116;28;21045;-78
2023/11/24 10:13:01;;;;;;;2.50;1.07;;;7.00;99.90;;;7.46;100.00;97526.03;5019530;28;21386;-77
2023/11/24 10:15:32;;;;;;;5.57;1.30;;;7.00;99.90;;;7.45;100.00;97529.63;5021499;28;20482;-77
2023/11/24 10:18:02;;;;;;;5.20;1.67;;;7.00;99.90;;;7.49;100.00;97502.28;5021868;28;20474;-77
2023/11/24 10:20:32;;;;;;;2.33;1.03;;;7.00;99.90;;;7.47;100.00;97512.03;5019608;28;20473;-78
2023/11/24 10:23:03;;;;;;;2.60;1.60;;;7.00;99.90;;;7.49;100.00;97497.09;5018886;28;21154;-77
2023/11/24 10:25:34;;;;;;;5.53;1.40;;;7.00;99.90;;;7.53;100.00;97503.50;5022296;28;20481;-77
2023/11/24 10:28:08;;;;;;;5.57;1.40;;;7.00;99.90;;;7.53;100.00;97503.50;5020238;28;20630;-77
2023/11/24 10:30:38;;;;;;;5.63;1.00;;;7.10;99.90;;;7.59;100.00;97502.00;5019907;28;20526;-77
2023/11/24 10:33:07;;;;;;;3.70;1.30;;;7.10;99.90;;;7.63;100.00;97489.44;5019312;28;20634;-77
2023/11/24 10:35:56;;;;;;;5.07;1.33;;;7.00;99.90;;;7.50;100.00;97483.06;5020078;28;20512;-77